Time;durP1;ratioP1;P1;durP2;ratioP2;P2;SDS_P1;SDS_P2;PMS_P1;PMS_P2;Temp;Humidity;BMP_temperature;BMP_pressure;BME280_temperature;BME280_humidity;BME280_pressure;Samples;Min_cycle;Max_cycle;Signal;HPM_P1;HPM_P2
2023/07/24 00:00:15;;;;;;;2.55;1.35;;;19.20;99.90;;;;;;6176208;23;20001;-81
2023/07/24 00:02:41;;;;;;;3.80;1.48;;;19.20;99.90;;;;;;6177894;23;20001;-82
2023/07/24 00:05:07;;;;;;;1.48;1.10;;;19.20;99.90;;;;;;6176390;23;20009;-81
2023/07/24 00:07:32;;;;;;;2.05;1.33;;;19.20;99.90;;;;;;6178855;23;20044;-84
2023/07/24 00:09:58;;;;;;;5.30;1.52;;;19.20;99.90;;;;;;6149985;23;20009;-80
2023/07/24 00:12:23;;;;;;;2.97;1.40;;;19.20;99.90;;;;;;6176384;23;20001;-80
2023/07/24 00:14:52;;;;;;;2.13;1.10;;;19.20;99.90;;;;;;6178822;23;20021;-85
2023/07/24 00:17:18;;;;;;;1.67;1.30;;;19.20;99.90;;;;;;6176244;23;20005;-82
2023/07/24 00:19:43;;;;;;;1.52;1.27;;;19.20;99.90;;;;;;6177371;23;20063;-84
2023/07/24 00:22:09;;;;;;;1.30;1.20;;;19.20;99.90;;;;;;6178417;23;20485;-87
2023/07/24 00:24:35;;;;;;;1.73;1.17;;;19.20;99.90;;;;;;6177607;23;20339;-81
2023/07/24 00:27:01;;;;;;;2.25;1.30;;;19.20;99.90;;;;;;6169803;23;20005;-82
2023/07/24 00:29:28;;;;;;;4.20;0.90;;;19.30;99.90;;;;;;6177490;23;20002;-81
2023/07/24 00:31:53;;;;;;;1.77;0.98;;;19.30;99.90;;;;;;6177794;23;20025;-83
2023/07/24 00:34:19;;;;;;;2.80;1.13;;;19.30;99.90;;;;;;6177847;23;20001;-82
2023/07/24 00:36:45;;;;;;;3.10;1.40;;;19.30;99.90;;;;;;6177425;23;20439;-82
2023/07/24 00:39:10;;;;;;;1.50;0.98;;;19.30;99.90;;;;;;6177136;23;20423;-80
2023/07/24 00:41:36;;;;;;;4.35;1.13;;;19.30;99.90;;;;;;6177041;23;20004;-83
2023/07/24 00:44:04;;;;;;;1.35;1.20;;;19.30;99.90;;;;;;6176194;23;20005;-80
2023/07/24 00:46:32;;;;;;;1.55;1.25;;;19.30;99.90;;;;;;6177096;23;20013;-82
2023/07/24 00:48:58;;;;;;;3.03;1.10;;;19.20;99.90;;;;;;6177775;23;20005;-84
2023/07/24 00:51:24;;;;;;;4.03;1.63;;;19.20;99.90;;;;;;6179663;23;20009;-81
2023/07/24 00:53:50;;;;;;;1.65;1.00;;;19.20;99.90;;;;;;6180011;23;20092;-85
2023/07/24 00:56:15;;;;;;;3.63;1.13;;;19.20;99.90;;;;;;6178210;23;20043;-81
2023/07/24 00:58:41;;;;;;;8.88;1.75;;;19.20;99.90;;;;;;6178396;23;20394;-83
2023/07/24 01:01:07;;;;;;;2.45;1.50;;;19.20;99.90;;;;;;6178981;23;20076;-80
2023/07/24 01:03:35;;;;;;;3.17;1.65;;;19.20;99.90;;;;;;6177865;23;20076;-83
2023/07/24 01:06:04;;;;;;;1.90;1.40;;;19.20;99.90;;;;;;6177891;23;20012;-82
2023/07/24 01:08:30;;;;;;;1.25;1.05;;;19.20;99.90;;;;;;6177488;23;20482;-83
2023/07/24 01:10:59;;;;;;;1.35;1.23;;;19.10;99.90;;;;;;6179423;23;20009;-81
2023/07/24 01:13:28;;;;;;;2.75;1.25;;;19.10;99.90;;;;;;6179036;23;20460;-82
2023/07/24 01:16:02;;;;;;;10.90;1.45;;;19.10;99.90;;;;;;6177953;23;20087;-82
2023/07/24 01:18:30;;;;;;;1.83;1.40;;;19.10;99.90;;;;;;6177984;23;20339;-82
2023/07/24 01:20:57;;;;;;;2.08;1.65;;;19.00;99.90;;;;;;6179743;23;20020;-83
2023/07/24 01:23:44;;;;;;;2.20;1.20;;;19.00;99.90;;;;;;6178626;23;20432;-82
2023/07/24 01:26:10;;;;;;;2.00;1.35;;;19.00;99.90;;;;;;6174297;23;20012;-88
2023/07/24 01:28:36;;;;;;;1.23;1.10;;;19.00;99.90;;;;;;6177546;23;20063;-84
2023/07/24 01:31:01;;;;;;;1.90;1.33;;;19.00;99.90;;;;;;6178549;23;20005;-86
2023/07/24 01:33:28;;;;;;;1.50;1.40;;;19.00;99.90;;;;;;6178623;23;20004;-83
2023/07/24 01:35:59;;;;;;;2.25;1.35;;;19.00;99.90;;;;;;6179338;23;20005;-81
2023/07/24 01:38:25;;;;;;;3.33;1.23;;;19.00;99.90;;;;;;6178176;23;20364;-83
2023/07/24 01:40:53;;;;;;;2.10;1.38;;;19.00;99.90;;;;;;6178902;23;20001;-84
2023/07/24 01:43:18;;;;;;;1.30;1.20;;;19.00;99.90;;;;;;6178418;23;20431;-85
2023/07/24 01:45:44;;;;;;;4.68;2.80;;;19.00;99.90;;;;;;6176878;23;20012;-83
2023/07/24 01:48:10;;;;;;;6.47;1.73;;;18.90;99.90;;;;;;6178973;23;20016;-84
2023/07/24 01:50:35;;;;;;;3.47;1.50;;;18.90;99.90;;;;;;6178308;23;20071;-83
2023/07/24 01:53:01;;;;;;;1.67;1.35;;;18.90;99.90;;;;;;6178768;23;20048;-83
2023/07/24 01:55:26;;;;;;;2.08;1.55;;;18.80;99.90;;;;;;6178031;23;20092;-82
2023/07/24 01:57:53;;;;;;;3.78;1.55;;;18.80;99.90;;;;;;6150666;23;20009;-81
2023/07/24 02:00:18;;;;;;;2.90;1.23;;;18.80;99.90;;;;;;6177243;23;20004;-83
2023/07/24 02:02:44;;;;;;;2.33;1.60;;;18.80;99.90;;;;;;6178653;23;20056;-83
2023/07/24 02:05:09;;;;;;;4.25;1.58;;;18.80;99.90;;;;;;6178547;23;20009;-83
2023/07/24 02:07:35;;;;;;;2.78;1.27;;;18.80;99.90;;;;;;6179217;23;20001;-83
2023/07/24 02:10:01;;;;;;;1.45;1.35;;;18.80;99.90;;;;;;6177724;23;20335;-83
2023/07/24 02:12:26;;;;;;;2.20;1.70;;;18.70;99.90;;;;;;6174240;23;20032;-83
2023/07/24 02:14:53;;;;;;;1.83;1.25;;;18.70;99.90;;;;;;6176848;23;20012;-82
2023/07/24 02:17:19;;;;;;;2.72;2.03;;;18.70;99.90;;;;;;6176348;23;20001;-81
2023/07/24 02:19:45;;;;;;;1.38;1.27;;;18.70;99.90;;;;;;6177584;23;20001;-82
2023/07/24 02:22:11;;;;;;;1.70;1.60;;;18.60;99.90;;;;;;6177030;23;20009;-81
2023/07/24 02:24:36;;;;;;;1.23;1.13;;;18.60;99.90;;;;;;6177629;23;20059;-82
2023/07/24 02:27:02;;;;;;;1.40;1.30;;;18.60;99.90;;;;;;6179172;23;20005;-82
2023/07/24 02:29:28;;;;;;;1.30;1.20;;;18.50;99.90;;;;;;6177650;23;20005;-82
2023/07/24 02:31:54;;;;;;;2.60;1.60;;;18.50;99.90;;;;;;6177390;23;20001;-83
2023/07/24 02:34:26;;;;;;;2.58;1.70;;;18.50;99.90;;;;;;6177580;23;20671;-82
2023/07/24 02:36:52;;;;;;;1.65;1.55;;;18.50;99.90;;;;;;6176799;23;20421;-81
2023/07/24 02:39:19;;;;;;;1.63;1.45;;;18.50;99.90;;;;;;6177077;23;20028;-82
2023/07/24 02:41:45;;;;;;;2.20;1.60;;;18.50;99.90;;;;;;6177863;23;20316;-82
2023/07/24 02:44:10;;;;;;;5.13;2.20;;;18.50;99.90;;;;;;6176112;23;20004;-83
2023/07/24 02:46:36;;;;;;;3.03;1.80;;;18.40;99.90;;;;;;6175190;23;20516;-81
2023/07/24 02:49:02;;;;;;;3.95;1.60;;;18.50;99.90;;;;;;6176295;23;20005;-82
2023/07/24 02:51:27;;;;;;;2.10;1.80;;;18.50;99.90;;;;;;6178294;23;20005;-83
2023/07/24 02:53:55;;;;;;;3.65;2.10;;;18.50;99.90;;;;;;6176445;23;20017;-82
2023/07/24 02:56:21;;;;;;;2.00;1.60;;;18.50;99.90;;;;;;6177025;23;20001;-81
2023/07/24 02:58:46;;;;;;;5.15;2.17;;;18.60;99.90;;;;;;6176428;23;20002;-83
2023/07/24 03:01:14;;;;;;;9.45;2.40;;;18.60;99.90;;;;;;6177247;23;20004;-82
2023/07/24 03:03:40;;;;;;;4.03;2.20;;;18.60;99.90;;;;;;6176818;23;20002;-82
2023/07/24 03:06:06;;;;;;;2.33;2.00;;;18.50;99.90;;;;;;6175853;23;20012;-83
2023/07/24 03:08:31;;;;;;;6.53;2.20;;;18.60;99.90;;;;;;6178457;23;20012;-82
2023/07/24 03:10:57;;;;;;;2.88;2.10;;;18.60;99.90;;;;;;6177410;23;20001;-82
2023/07/24 03:13:23;;;;;;;2.58;1.88;;;18.50;99.90;;;;;;6176263;23;20009;-81
2023/07/24 03:15:57;;;;;;;2.65;2.13;;;18.50;99.90;;;;;;6177035;23;20008;-83
2023/07/24 03:18:22;;;;;;;4.07;2.00;;;18.50;99.90;;;;;;6178206;23;20001;-82
2023/07/24 03:20:48;;;;;;;9.25;2.35;;;18.50;99.90;;;;;;6179396;23;20415;-83
2023/07/24 03:23:14;;;;;;;3.35;2.25;;;18.50;99.90;;;;;;6176984;23;20001;-82
2023/07/24 03:25:40;;;;;;;4.35;2.20;;;18.50;99.90;;;;;;6170820;23;20417;-82
2023/07/24 03:28:05;;;;;;;2.85;2.25;;;18.50;99.90;;;;;;6177014;23;20005;-85
2023/07/24 03:30:31;;;;;;;3.17;2.53;;;18.50;99.90;;;;;;6175421;23;20005;-83
2023/07/24 03:32:57;;;;;;;5.90;2.58;;;18.40;99.90;;;;;;6177687;23;20016;-82
2023/07/24 03:35:23;;;;;;;2.80;2.20;;;18.40;99.90;;;;;;6176581;23;20128;-83
2023/07/24 03:37:48;;;;;;;6.40;2.10;;;18.40;99.90;;;;;;6178561;23;20001;-84
2023/07/24 03:40:15;;;;;;;2.05;1.90;;;18.50;99.90;;;;;;6176785;23;20001;-83
2023/07/24 03:42:41;;;;;;;2.65;2.00;;;18.40;99.90;;;;;;6176529;23;20001;-87
2023/07/24 03:45:07;;;;;;;2.75;2.40;;;18.40;99.90;;;;;;6176722;23;20398;-84
2023/07/24 03:47:33;;;;;;;5.22;2.38;;;18.40;99.90;;;;;;6177679;23;20008;-82
2023/07/24 03:49:59;;;;;;;3.67;2.00;;;18.40;99.90;;;;;;6176782;23;20000;-83
2023/07/24 03:52:24;;;;;;;2.95;2.05;;;18.40;99.90;;;;;;6175270;23;20001;-82
2023/07/24 03:54:52;;;;;;;2.30;2.05;;;18.40;99.90;;;;;;6176825;23;20005;-81
2023/07/24 03:57:17;;;;;;;4.10;2.58;;;18.40;99.90;;;;;;6176227;23;20001;-83
2023/07/24 03:59:43;;;;;;;2.25;1.98;;;18.40;99.90;;;;;;6176245;23;20323;-82
2023/07/24 04:02:09;;;;;;;3.15;2.13;;;18.40;99.90;;;;;;6176948;23;20012;-82
2023/07/24 04:04:35;;;;;;;8.45;2.00;;;18.40;99.90;;;;;;6176702;23;19998;-83
2023/07/24 04:07:01;;;;;;;2.53;1.73;;;18.30;99.90;;;;;;6177054;23;20021;-84
2023/07/24 04:09:26;;;;;;;4.15;2.28;;;18.30;99.90;;;;;;6176454;23;20008;-83
2023/07/24 04:11:52;;;;;;;2.72;1.95;;;18.30;99.90;;;;;;6177235;23;20102;-82
2023/07/24 04:14:17;;;;;;;2.30;1.90;;;18.30;99.90;;;;;;6177764;23;20005;-83
2023/07/24 04:16:44;;;;;;;2.38;1.98;;;18.30;99.90;;;;;;6175461;23;20036;-83
2023/07/24 04:19:10;;;;;;;2.97;2.30;;;18.30;99.90;;;;;;6177681;23;20031;-83
2023/07/24 04:21:35;;;;;;;5.78;2.13;;;18.30;99.90;;;;;;6177103;23;20447;-83
2023/07/24 04:24:01;;;;;;;3.50;2.03;;;18.30;99.90;;;;;;6178606;23;20005;-82
2023/07/24 04:26:26;;;;;;;2.42;1.70;;;18.30;99.90;;;;;;6172235;23;20047;-83
2023/07/24 04:28:55;;;;;;;2.10;1.90;;;18.40;99.90;;;;;;6179073;23;19998;-82
2023/07/24 04:31:21;;;;;;;2.22;1.75;;;18.30;99.90;;;;;;6178732;23;20019;-82
2023/07/24 04:33:47;;;;;;;2.17;1.70;;;18.40;99.90;;;;;;6179290;23;20316;-82
2023/07/24 04:36:12;;;;;;;4.32;2.40;;;18.40;99.90;;;;;;6177565;23;20005;-83
2023/07/24 04:38:38;;;;;;;3.03;2.20;;;18.40;99.90;;;;;;6179389;23;20005;-83
2023/07/24 04:41:03;;;;;;;10.73;2.10;;;18.40;99.90;;;;;;6178341;23;20076;-83
2023/07/24 04:43:29;;;;;;;3.70;2.08;;;18.40;99.90;;;;;;6177623;23;20008;-83
2023/07/24 04:45:55;;;;;;;5.70;2.20;;;18.50;99.90;;;;;;6179886;23;20381;-84
2023/07/24 04:48:21;;;;;;;5.18;2.28;;;18.60;99.90;;;;;;6179554;23;20412;-84
2023/07/24 04:50:46;;;;;;;3.10;2.00;;;18.60;99.90;;;;;;6178984;23;20008;-83
2023/07/24 04:53:12;;;;;;;4.82;2.30;;;18.50;99.90;;;;;;6179402;23;20016;-83
2023/07/24 04:55:38;;;;;;;2.97;2.42;;;18.50;99.90;;;;;;6179542;23;20011;-82
2023/07/24 04:58:04;;;;;;;2.50;2.30;;;18.50;99.90;;;;;;6179594;23;20029;-83
2023/07/24 05:00:29;;;;;;;2.47;1.80;;;18.60;99.90;;;;;;6179212;23;20001;-82
2023/07/24 05:02:55;;;;;;;2.47;1.70;;;18.50;99.90;;;;;;6180018;23;20043;-85
2023/07/24 05:05:20;;;;;;;2.58;1.88;;;18.60;99.90;;;;;;6178520;23;20055;-82
2023/07/24 05:07:46;;;;;;;2.35;1.83;;;18.60;99.90;;;;;;6179398;23;20004;-82
2023/07/24 05:10:13;;;;;;;1.90;1.70;;;18.60;99.90;;;;;;6178309;23;20415;-82
2023/07/24 05:12:41;;;;;;;4.65;1.98;;;18.60;99.90;;;;;;6179457;23;20004;-83
2023/07/24 05:15:07;;;;;;;3.83;2.40;;;18.70;99.90;;;;;;6176225;23;20001;-82
2023/07/24 05:17:33;;;;;;;3.70;2.25;;;18.80;99.90;;;;;;6174827;23;20084;-83
2023/07/24 05:19:58;;;;;;;3.50;2.40;;;18.90;99.90;;;;;;6173565;23;20036;-83
2023/07/24 05:22:25;;;;;;;4.20;2.47;;;19.00;99.90;;;;;;6178063;23;20005;-82
2023/07/24 05:24:50;;;;;;;2.22;2.03;;;19.00;99.90;;;;;;6179700;23;20313;-82
2023/07/24 05:27:16;;;;;;;3.03;2.20;;;19.20;99.90;;;;;;6172947;23;20087;-82
2023/07/24 05:29:43;;;;;;;2.58;2.25;;;19.30;99.90;;;;;;6179361;23;20084;-82
2023/07/24 05:32:08;;;;;;;4.60;2.60;;;19.40;99.90;;;;;;6179255;23;20355;-81
2023/07/24 05:34:34;;;;;;;3.88;2.40;;;19.40;99.90;;;;;;6177945;23;20028;-81
2023/07/24 05:37:00;;;;;;;4.85;2.63;;;19.60;99.90;;;;;;6178625;23;20055;-83
2023/07/24 05:39:25;;;;;;;4.57;2.50;;;19.70;99.90;;;;;;6176751;23;20005;-82
2023/07/24 05:41:51;;;;;;;6.75;3.38;;;19.80;99.90;;;;;;6178408;23;20001;-81
2023/07/24 05:44:16;;;;;;;5.90;3.15;;;19.90;99.90;;;;;;6176721;23;20037;-82
2023/07/24 05:46:42;;;;;;;3.90;2.55;;;19.90;99.90;;;;;;6178829;23;20371;-83
2023/07/24 05:49:07;;;;;;;3.22;2.85;;;20.00;99.90;;;;;;6177538;23;20005;-79
2023/07/24 05:51:33;;;;;;;5.32;2.58;;;20.00;99.90;;;;;;6178385;23;20429;-81
2023/07/24 05:53:59;;;;;;;7.57;2.47;;;20.00;99.90;;;;;;6179185;23;20017;-83
2023/07/24 05:56:24;;;;;;;4.32;2.58;;;19.90;99.90;;;;;;6177842;23;20001;-85
2023/07/24 05:58:50;;;;;;;5.35;2.85;;;19.90;99.90;;;;;;6178443;23;20314;-85
2023/07/24 06:01:15;;;;;;;5.60;3.20;;;19.80;99.90;;;;;;6179487;23;20424;-81
2023/07/24 06:03:41;;;;;;;5.00;3.20;;;19.80;99.90;;;;;;6178316;23;20100;-80
2023/07/24 06:06:06;;;;;;;7.22;2.90;;;19.80;99.90;;;;;;6178742;23;20013;-82
2023/07/24 06:08:32;;;;;;;3.33;2.45;;;19.80;99.90;;;;;;6149828;23;20083;-82
2023/07/24 06:11:01;;;;;;;5.60;2.65;;;19.80;99.90;;;;;;6178684;23;20025;-81
2023/07/24 06:13:26;;;;;;;2.50;2.28;;;19.80;99.90;;;;;;6177712;23;20432;-84
2023/07/24 06:15:52;;;;;;;3.13;2.58;;;19.70;99.90;;;;;;6179409;23;20028;-81
2023/07/24 06:18:18;;;;;;;4.28;2.75;;;19.70;99.90;;;;;;6178440;23;20271;-82
2023/07/24 06:20:43;;;;;;;3.55;2.45;;;19.60;99.90;;;;;;6177835;23;20434;-82
2023/07/24 06:23:09;;;;;;;4.97;2.60;;;19.60;99.90;;;;;;6176895;23;20378;-82
2023/07/24 06:25:35;;;;;;;6.57;2.90;;;19.60;99.90;;;;;;6172997;23;20222;-82
2023/07/24 06:28:00;;;;;;;6.03;3.00;;;19.60;99.90;;;;;;6179183;23;20005;-82
2023/07/24 06:30:26;;;;;;;10.93;3.00;;;19.60;99.90;;;;;;6178254;23;20001;-81
2023/07/24 06:32:52;;;;;;;4.90;2.63;;;19.60;99.90;;;;;;6178532;23;19997;-82
2023/07/24 06:35:20;;;;;;;4.57;2.78;;;19.60;99.90;;;;;;6151453;23;20015;-81
2023/07/24 06:37:46;;;;;;;2.95;2.25;;;19.60;99.90;;;;;;6179103;23;20005;-82
2023/07/24 06:40:12;;;;;;;4.82;2.45;;;19.60;99.90;;;;;;6178130;23;20375;-82
2023/07/24 06:42:37;;;;;;;4.97;2.90;;;19.60;99.90;;;;;;6177759;23;21007;-83
2023/07/24 06:45:04;;;;;;;4.88;3.17;;;19.60;99.90;;;;;;6178107;23;20005;-80
2023/07/24 06:47:31;;;;;;;6.30;2.80;;;19.70;99.90;;;;;;6177823;23;20060;-81
2023/07/24 06:49:57;;;;;;;5.00;3.20;;;19.70;99.90;;;;;;6176323;23;20005;-80
2023/07/24 06:52:23;;;;;;;6.15;3.10;;;19.80;99.90;;;;;;6177877;23;20081;-81
2023/07/24 06:54:48;;;;;;;3.10;2.53;;;19.80;99.90;;;;;;6178389;23;20021;-84
2023/07/24 06:57:14;;;;;;;3.70;2.75;;;19.80;99.90;;;;;;6177046;23;20320;-82
2023/07/24 06:59:39;;;;;;;4.18;3.17;;;19.80;99.90;;;;;;6175476;23;20027;-82
2023/07/24 07:02:05;;;;;;;6.40;3.55;;;19.90;99.90;;;;;;6178439;23;20001;-81
2023/07/24 07:04:31;;;;;;;4.70;2.80;;;19.80;99.90;;;;;;6178781;23;20074;-83
2023/07/24 07:06:56;;;;;;;6.28;3.05;;;19.90;99.90;;;;;;6178357;23;20009;-82
2023/07/24 07:09:22;;;;;;;7.05;3.15;;;19.90;99.90;;;;;;6178324;23;20008;-82
2023/07/24 07:11:47;;;;;;;3.97;2.70;;;19.90;99.90;;;;;;6152647;23;20334;-82
2023/07/24 07:14:13;;;;;;;3.63;2.50;;;19.90;99.90;;;;;;6177901;23;20088;-82
2023/07/24 07:16:38;;;;;;;4.75;2.58;;;19.90;99.90;;;;;;6152217;23;20319;-90
2023/07/24 07:19:04;;;;;;;4.60;2.97;;;20.00;99.90;;;;;;6178621;23;20446;-83
2023/07/24 07:21:30;;;;;;;4.60;2.70;;;20.00;99.90;;;;;;6178508;23;20025;-81
2023/07/24 07:23:55;;;;;;;4.25;2.75;;;20.00;99.90;;;;;;6178081;23;20001;-82
2023/07/24 07:26:22;;;;;;;8.32;2.85;;;20.00;99.90;;;;;;6172470;23;20020;-81
2023/07/24 07:28:48;;;;;;;3.40;2.95;;;20.00;99.90;;;;;;6178779;23;19997;-82
2023/07/24 07:31:14;;;;;;;6.13;2.83;;;20.00;99.90;;;;;;6178740;23;20415;-82
2023/07/24 07:33:39;;;;;;;4.82;2.97;;;20.10;99.90;;;;;;6178606;23;20060;-83
2023/07/24 07:36:05;;;;;;;5.80;3.03;;;20.00;99.90;;;;;;6178656;23;20049;-82
2023/07/24 07:38:33;;;;;;;5.13;3.28;;;20.00;99.90;;;;;;6178853;23;20307;-82
2023/07/24 07:40:58;;;;;;;3.75;2.75;;;20.00;99.90;;;;;;6178419;23;19997;-82
2023/07/24 07:43:24;;;;;;;2.97;2.67;;;20.10;99.90;;;;;;6178101;23;20024;-82
2023/07/24 07:45:49;;;;;;;3.78;3.17;;;20.20;99.90;;;;;;6178362;23;20036;-82
2023/07/24 07:48:15;;;;;;;5.45;3.00;;;20.20;99.90;;;;;;6177960;23;20393;-82
2023/07/24 07:50:41;;;;;;;4.28;3.20;;;20.20;99.90;;;;;;6178501;23;20068;-83
2023/07/24 07:53:09;;;;;;;12.57;3.65;;;20.30;99.90;;;;;;6178309;23;20017;-83
2023/07/24 07:55:35;;;;;;;6.60;3.47;;;20.30;99.90;;;;;;6178848;23;20004;-82
2023/07/24 07:58:00;;;;;;;8.73;3.30;;;20.30;99.90;;;;;;6178648;23;20005;-83
2023/07/24 08:00:26;;;;;;;7.07;3.28;;;20.50;99.90;;;;;;6176447;23;19997;-83
2023/07/24 08:02:51;;;;;;;8.52;3.83;;;20.60;99.90;;;;;;6175350;23;20005;-82
2023/07/24 08:05:18;;;;;;;5.65;3.60;;;20.70;99.90;;;;;;6173336;23;20040;-80
2023/07/24 08:07:44;;;;;;;11.77;3.10;;;20.90;99.90;;;;;;6174824;23;20086;-81
2023/07/24 08:10:09;;;;;;;8.25;3.55;;;21.00;99.90;;;;;;6175119;23;20005;-81
2023/07/24 08:12:35;;;;;;;6.43;3.67;;;21.10;99.90;;;;;;6177416;23;20419;-84
2023/07/24 08:15:00;;;;;;;5.85;3.50;;;21.20;99.90;;;;;;6177215;23;19997;-84
2023/07/24 08:17:26;;;;;;;6.35;3.72;;;21.40;99.90;;;;;;6178716;23;20007;-82
2023/07/24 08:19:52;;;;;;;6.38;3.97;;;21.40;99.90;;;;;;6177354;23;20002;-81
2023/07/24 08:22:19;;;;;;;8.55;3.85;;;21.50;99.90;;;;;;6178712;23;20097;-83
2023/07/24 08:24:45;;;;;;;5.00;3.65;;;21.60;99.90;;;;;;6178345;23;20490;-82
2023/07/24 08:27:11;;;;;;;7.15;3.85;;;21.60;99.90;;;;;;6170860;23;20053;-85
2023/07/24 08:29:37;;;;;;;12.15;4.10;;;21.70;99.90;;;;;;6178268;23;20427;-82
2023/07/24 08:32:04;;;;;;;7.53;4.47;;;21.80;99.90;;;;;;6178489;23;20008;-90
2023/07/24 08:34:30;;;;;;;7.57;4.40;;;21.90;99.90;;;;;;6177920;23;20005;-82
2023/07/24 08:36:55;;;;;;;7.30;4.18;;;22.00;99.90;;;;;;6178618;23;20007;-82
2023/07/24 08:39:21;;;;;;;5.97;3.90;;;22.10;99.90;;;;;;6178003;23;20334;-81
2023/07/24 08:41:46;;;;;;;11.23;4.18;;;22.20;99.90;;;;;;6151110;23;20009;-82
2023/07/24 08:44:12;;;;;;;7.35;3.95;;;22.30;99.90;;;;;;6177867;23;20382;-82
2023/07/24 08:46:41;;;;;;;4.95;3.50;;;22.30;99.90;;;;;;6151888;23;20428;-81
2023/07/24 08:49:13;;;;;;;8.93;4.78;;;22.40;99.90;;;;;;6174958;23;20009;-82
2023/07/24 08:51:41;;;;;;;7.13;4.22;;;22.50;99.90;;;;;;6174889;23;20005;-80
2023/07/24 08:54:07;;;;;;;6.55;4.43;;;22.70;99.90;;;;;;6178444;23;20027;-83
2023/07/24 08:56:33;;;;;;;6.05;4.00;;;22.80;99.90;;;;;;6177782;23;20005;-82
2023/07/24 08:58:59;;;;;;;7.43;4.03;;;22.80;99.90;;;;;;6178012;23;20501;-81
2023/07/24 09:01:25;;;;;;;5.28;4.00;;;22.90;99.90;;;;;;6177562;23;19998;-81
2023/07/24 09:03:51;;;;;;;8.90;4.85;;;23.10;99.90;;;;;;6176919;23;20002;-81
2023/07/24 09:06:16;;;;;;;9.00;4.32;;;23.10;99.90;;;;;;6177737;23;20013;-82
2023/07/24 09:08:43;;;;;;;6.43;4.55;;;23.10;99.90;;;;;;6177702;23;20001;-82
2023/07/24 09:11:10;;;;;;;9.15;4.80;;;23.20;99.90;;;;;;6152313;23;20432;-82
2023/07/24 09:13:37;;;;;;;6.78;4.45;;;23.20;99.90;;;;;;6180047;23;20072;-82
2023/07/24 09:16:03;;;;;;;10.68;5.00;;;23.20;99.90;;;;;;6180329;23;20012;-84
2023/07/24 09:18:40;;;;;;;10.02;4.97;;;23.20;99.90;;;;;;6178994;23;20087;-81
2023/07/24 09:21:05;;;;;;;7.97;4.25;;;23.20;99.90;;;;;;6179750;23;20084;-82
2023/07/24 09:23:31;;;;;;;9.30;4.10;;;23.20;99.90;;;;;;6179078;23;20035;-81
2023/07/24 09:25:57;;;;;;;5.85;4.45;;;23.30;99.90;;;;;;6172788;23;20032;-81
2023/07/24 09:28:23;;;;;;;7.47;4.43;;;23.30;99.90;;;;;;6179023;23;20404;-82
2023/07/24 09:30:56;;;;;;;10.10;4.43;;;23.40;99.90;;;;;;6177993;23;20470;-81
2023/07/24 09:33:39;;;;;;;8.63;5.00;;;23.50;99.90;;;;;;6153190;23;20348;-79
2023/07/24 09:36:10;;;;;;;25.27;6.03;;;23.50;99.90;;;;;;6179105;23;20008;-86
2023/07/24 09:38:37;;;;;;;8.48;4.88;;;23.60;99.90;;;;;;6179973;23;20009;-83
2023/07/24 09:41:03;;;;;;;17.17;5.72;;;23.60;99.90;;;;;;6179659;23;20024;-82
2023/07/24 09:43:29;;;;;;;9.60;5.32;;;23.50;99.90;;;;;;6179278;23;20426;-85
2023/07/24 09:45:57;;;;;;;50.65;8.50;;;23.50;99.90;;;;;;6178254;23;20009;-81
2023/07/24 09:48:26;;;;;;;10.38;4.95;;;23.50;99.90;;;;;;6179079;23;20008;-82
2023/07/24 09:50:55;;;;;;;7.60;4.68;;;23.60;99.90;;;;;;6179464;23;19997;-82
2023/07/24 09:53:35;;;;;;;10.52;4.68;;;23.70;99.90;;;;;;6179157;23;20374;-81
2023/07/24 09:56:09;;;;;;;9.18;5.05;;;23.90;99.90;;;;;;6178658;23;20340;-82
2023/07/24 09:58:40;;;;;;;8.07;5.35;;;24.00;99.90;;;;;;6179289;23;20040;-84
2023/07/24 10:01:08;;;;;;;8.68;5.13;;;24.10;99.90;;;;;;6178397;23;20027;-81
2023/07/24 10:03:54;;;;;;;6.95;4.97;;;24.30;99.90;;;;;;6178831;23;20012;-81
2023/07/24 10:06:20;;;;;;;11.75;5.10;;;24.40;99.90;;;;;;6150021;23;20099;-81
2023/07/24 10:08:46;;;;;;;7.40;5.45;;;24.50;99.90;;;;;;6178939;23;20020;-88
2023/07/24 10:11:13;;;;;;;6.55;4.68;;;24.50;99.90;;;;;;6178306;23;20008;-81
2023/07/24 10:13:40;;;;;;;884.20;107.90;;;24.40;99.90;;;;;;6178559;23;20399;-82
2023/07/24 10:16:06;;;;;;;9.63;5.22;;;24.40;99.90;;;;;;6179523;23;20032;-82
2023/07/24 10:18:34;;;;;;;11.23;5.40;;;24.50;99.90;;;;;;6150589;23;20005;-85
2023/07/24 10:21:08;;;;;;;6.55;4.97;;;24.40;99.90;;;;;;6178123;23;20001;-82
2023/07/24 10:23:35;;;;;;;7.18;5.10;;;24.40;99.90;;;;;;6178816;23;20001;-82
2023/07/24 10:26:05;;;;;;;10.55;5.03;;;24.50;99.90;;;;;;6171823;23;20320;-81
2023/07/24 10:28:38;;;;;;;8.93;5.35;;;24.50;99.90;;;;;;6179282;23;20024;-80
2023/07/24 10:31:22;;;;;;;7.93;4.70;;;24.50;99.90;;;;;;6177974;23;20019;-83
2023/07/24 10:33:48;;;;;;;14.10;5.32;;;24.40;99.90;;;;;;6179538;23;19997;-85
2023/07/24 10:36:19;;;;;;;13.98;5.75;;;24.20;99.90;;;;;;6179090;23;20323;-82
2023/07/24 10:38:45;;;;;;;8.98;4.45;;;24.10;99.90;;;;;;6178225;23;20388;-81
2023/07/24 10:41:11;;;;;;;5.47;4.43;;;24.10;99.90;;;;;;6178192;23;20266;-82
2023/07/24 10:43:44;;;;;;;7.30;4.70;;;24.20;99.90;;;;;;6179133;23;20368;-81
2023/07/24 10:46:10;;;;;;;9.77;4.57;;;24.30;99.90;;;;;;6178709;23;20009;-82
2023/07/24 10:48:36;;;;;;;14.65;5.03;;;24.30;99.90;;;;;;6179488;23;20009;-81
2023/07/24 10:51:09;;;;;;;36.42;8.52;;;24.30;99.90;;;;;;6178229;23;20362;-80
2023/07/24 10:53:37;;;;;;;51.08;7.13;;;24.40;99.90;;;;;;6178532;23;20101;-82
2023/07/24 10:56:04;;;;;;;17.65;5.57;;;24.50;99.90;;;;;;6178922;23;20012;-82
2023/07/24 10:58:31;;;;;;;8.38;4.10;;;24.70;99.90;;;;;;6179075;23;20008;-80
2023/07/24 11:00:57;;;;;;;13.73;5.10;;;24.80;99.90;;;;;;6177936;23;20007;-81
2023/07/24 11:03:24;;;;;;;7.97;5.15;;;24.80;99.90;;;;;;6178330;23;20396;-81
2023/07/24 11:05:49;;;;;;;7.82;4.35;;;24.70;99.90;;;;;;6179009;23;20096;-83
2023/07/24 11:08:18;;;;;;;9.05;4.88;;;24.60;99.90;;;;;;6179138;23;20036;-82
2023/07/24 11:10:49;;;;;;;8.38;5.30;;;24.50;99.90;;;;;;6179094;23;19998;-82
2023/07/24 11:13:16;;;;;;;11.73;4.82;;;24.30;99.90;;;;;;6178063;23;20435;-81
2023/07/24 11:15:41;;;;;;;10.57;5.35;;;24.20;99.90;;;;;;6178702;23;20001;-84
2023/07/24 11:18:08;;;;;;;8.45;5.22;;;24.20;99.90;;;;;;6179047;23;20001;-82
2023/07/24 11:20:44;;;;;;;11.00;5.18;;;24.10;99.90;;;;;;6178837;23;20072;-81
2023/07/24 11:23:10;;;;;;;12.35;5.57;;;24.10;99.90;;;;;;6178470;23;19993;-82
2023/07/24 11:25:36;;;;;;;10.90;5.15;;;24.20;99.90;;;;;;6171089;23;20001;-81
2023/07/24 11:28:04;;;;;;;8.02;4.60;;;24.20;99.90;;;;;;6172651;23;20009;-82
2023/07/24 11:30:29;;;;;;;9.98;4.60;;;24.10;99.90;;;;;;6173968;23;20009;-83
2023/07/24 11:32:59;;;;;;;8.55;5.07;;;24.00;99.90;;;;;;6175261;23;20537;-81
2023/07/24 11:35:25;;;;;;;7.07;4.72;;;24.00;99.90;;;;;;6177532;23;20047;-82
2023/07/24 11:37:51;;;;;;;13.73;5.68;;;24.00;99.90;;;;;;6178156;23;20005;-80
2023/07/24 11:40:16;;;;;;;9.43;5.63;;;24.00;99.90;;;;;;6178842;23;20399;-83
2023/07/24 11:42:46;;;;;;;10.73;5.32;;;23.90;99.90;;;;;;6177232;23;20004;-81
2023/07/24 11:45:12;;;;;;;14.32;5.63;;;23.80;99.90;;;;;;6150202;23;20344;-83
2023/07/24 11:47:48;;;;;;;11.48;5.57;;;23.80;99.90;;;;;;6177805;23;20032;-81
2023/07/24 11:50:15;;;;;;;7.05;4.47;;;23.70;99.90;;;;;;6176016;23;20005;-82
2023/07/24 11:52:45;;;;;;;7.13;5.43;;;23.70;99.90;;;;;;6177195;23;20013;-81
2023/07/24 11:55:13;;;;;;;8.60;5.28;;;23.60;99.90;;;;;;6177223;23;20335;-82
2023/07/24 11:57:39;;;;;;;6.82;4.70;;;23.60;99.90;;;;;;6177626;23;20001;-82
2023/07/24 12:00:06;;;;;;;7.63;5.20;;;23.60;99.90;;;;;;6176875;23;20005;-83
2023/07/24 12:02:33;;;;;;;6.93;4.78;;;23.50;99.90;;;;;;6178401;23;20026;-83
2023/07/24 12:05:00;;;;;;;9.73;5.43;;;23.50;99.90;;;;;;6178302;23;20023;-82
2023/07/24 12:07:34;;;;;;;14.38;5.32;;;23.60;99.90;;;;;;6177838;23;20422;-81
2023/07/24 12:10:05;;;;;;;7.13;5.10;;;23.60;99.90;;;;;;6177498;23;20006;-83
2023/07/24 12:12:44;;;;;;;17.00;5.38;;;23.70;99.90;;;;;;6178305;23;20008;-81
2023/07/24 12:15:11;;;;;;;9.55;5.78;;;23.80;99.90;;;;;;6176775;23;20008;-80
2023/07/24 12:17:37;;;;;;;8.75;4.90;;;23.90;99.90;;;;;;6177110;23;20253;-81
2023/07/24 12:20:11;;;;;;;8.25;5.40;;;24.00;99.90;;;;;;6152201;23;20023;-82
2023/07/24 12:22:38;;;;;;;9.30;5.63;;;24.00;99.90;;;;;;6178054;23;20031;-81
2023/07/24 12:25:04;;;;;;;10.57;5.80;;;23.90;99.90;;;;;;6169472;23;20280;-82
2023/07/24 12:27:30;;;;;;;6.60;4.53;;;23.90;99.90;;;;;;6176429;23;20009;-82
2023/07/24 12:29:56;;;;;;;9.63;5.40;;;23.90;99.90;;;;;;6177108;23;20404;-82
2023/07/24 12:32:22;;;;;;;11.75;5.10;;;23.80;99.90;;;;;;6177881;23;20008;-82
2023/07/24 12:34:50;;;;;;;10.63;5.78;;;23.90;99.90;;;;;;6178299;23;20001;-82
2023/07/24 12:37:15;;;;;;;7.18;5.13;;;23.90;99.90;;;;;;6176357;23;20012;-82
2023/07/24 12:39:41;;;;;;;13.15;5.90;;;23.80;99.90;;;;;;6178355;23;20101;-82
2023/07/24 12:42:07;;;;;;;9.30;5.13;;;23.80;99.90;;;;;;6151378;23;20603;-81